Главная страница
METAR-TAF:

METAR-TAF

Аэропорты :

Казань, Россия

широта: 55-47N, долгота: 049-12E, высота над уровнем моря: м

Текущие метеонаблюдения

Эта сводка был подготовлена 22 минут назад, в 07:00 UTC
Ветер 2 Узел переменных направлений
Температура 16°C
Влажность 51%
Давление 1026 hPa
Видимость 10 км и более
Нет облачности ниже 1500 м, и нет кучево-дождевой облачности

METAR: UWKD 290700Z VRB01MPS CAVOK 16/06 Q1026 R11/CLRD70 NOSIG RMK QFE759/1013

Время: 10:22 (07:22 UTC)

Прогноз

Эта сводка был подготовлена 2 часа и 30 минут назад, в 04:52 UTC
Прогноз действительный с 29-го 06 UTC до 30-го 06 UTC
Ветер 8 Узел от восточный
Видимость 10 км и более
Рассеянная облачность на высоте 3000 фута
временами
С 29-го 06 UTC до 29-го 15 UTC
Ветер 17 Узел от восточно-юго-восточный

TAF: UWKD 290452Z 2906/3006 10004MPS 9999 BKN030 TX20/2912Z TN08/3003Z TEMPO 2906/2915 12009MPS

Метеонаблюдения и прогнозы для более 4000 аэропортов (сводки METAR и TAF).

Имеющиеся станции представлены на карте желтыми и красными точками.

Чтобы увидеть название станции, наведите на нее мышь.

Затем щелкните, чтобы увидеть метеонаблюдения и метеопрогнозы.

Управление картой: чтобы увеличить масштаб, щелкните зеленые кнопки с черным крестиком; чтобы уменьшить масштаб, щелкните зеленую кнопку с тире; для просмотра соседних карт щелкайте зеленые стрелки.


METAR-TAF: